Time;durP1;ratioP1;P1;durP2;ratioP2;P2;SDS_P1;SDS_P2;PMS_P1;PMS_P2;Temp;Humidity;BMP_temperature;BMP_pressure;BME280_temperature;BME280_humidity;BME280_pressure;Samples;Min_cycle;Max_cycle;Signal;HPM_P1;HPM_P2
2021/12/21 00:00:46;;;;;;;2.60;1.87;;;;;;;-0.92;79.82;100896.44;4435818;31;20153;-71
2021/12/21 00:03:14;;;;;;;3.90;2.40;;;;;;;-1.02;80.29;100902.97;4435661;31;20101;-71
2021/12/21 00:05:42;;;;;;;2.62;1.80;;;;;;;-1.01;79.89;100902.13;4435775;32;20089;-71
2021/12/21 00:08:13;;;;;;;2.15;1.73;;;;;;;-1.03;79.60;100903.75;4435714;32;20085;-71
2021/12/21 00:10:44;;;;;;;2.97;2.10;;;;;;;-1.07;79.30;100900.16;4435832;32;20108;-71
2021/12/21 00:16:10;;;;;;;4.13;1.53;;;;;;;-1.22;79.32;100902.09;4435797;32;20107;-71
2021/12/21 00:19:02;;;;;;;1.65;1.30;;;;;;;-1.21;78.46;100909.88;4435632;32;20203;-71
2021/12/21 00:21:39;;;;;;;4.12;1.45;;;;;;;-1.16;77.79;100910.12;4435480;32;20077;-70
2021/12/21 00:24:19;;;;;;;1.25;1.15;;;;;;;-1.08;76.66;100915.63;4435568;32;20092;-70
2021/12/21 00:26:46;;;;;;;3.62;1.75;;;;;;;-1.00;75.70;100901.28;4435582;32;20148;-71
2021/12/21 00:29:13;;;;;;;2.05;1.15;;;;;;;-1.13;75.88;100899.91;4435332;31;20093;-71
2021/12/21 00:31:40;;;;;;;5.47;1.60;;;;;;;-1.09;75.30;100898.34;4435439;32;20101;-71
2021/12/21 00:34:08;;;;;;;2.30;1.20;;;;;;;-1.13;75.50;100897.31;4435460;32;20184;-71
2021/12/21 00:36:38;;;;;;;2.12;0.85;;;;;;;-1.13;75.71;100911.94;4435488;32;20153;-71
2021/12/21 00:39:11;;;;;;;1.87;1.33;;;;;;;-1.16;75.81;100911.81;4435422;32;20135;-70
2021/12/21 00:41:39;;;;;;;1.33;1.23;;;;;;;-1.26;76.30;100915.69;4435306;32;20427;-70
2021/12/21 00:44:06;;;;;;;3.47;1.35;;;;;;;-1.29;76.15;100912.97;4435457;31;20245;-70
2021/12/21 00:46:33;;;;;;;1.75;1.02;;;;;;;-1.25;75.88;100923.50;4435417;32;20440;-70
2021/12/21 00:49:13;;;;;;;3.78;1.33;;;;;;;-1.22;75.60;100915.00;4435495;31;20085;-71
2021/12/21 00:51:42;;;;;;;4.45;1.00;;;;;;;-1.32;76.04;100915.41;4435343;32;20482;-70
2021/12/21 00:54:11;;;;;;;2.65;0.93;;;;;;;-1.25;75.73;100930.38;4435421;32;20101;-71
2021/12/21 00:56:38;;;;;;;2.87;1.35;;;;;;;-1.29;75.80;100923.31;4435370;32;20077;-70
2021/12/21 00:59:06;;;;;;;1.48;1.30;;;;;;;-1.26;75.55;100942.44;4435214;31;20520;-71
2021/12/21 01:01:40;;;;;;;2.03;0.95;;;;;;;-1.30;75.79;100937.94;4435089;32;20085;-70
2021/12/21 01:04:18;;;;;;;1.95;0.82;;;;;;;-1.29;75.75;100942.28;4435303;32;20109;-70
2021/12/21 01:07:05;;;;;;;1.98;1.08;;;;;;;-1.25;75.99;100948.47;4435142;32;20111;-70
2021/12/21 01:12:13;;;;;;;2.60;1.35;;;;;;;-1.37;76.51;100941.06;4436777;32;20128;-70
2021/12/21 01:17:33;;;;;;;1.62;1.37;;;;;;;-1.38;75.93;100943.56;4437355;32;20120;-70
2021/12/21 01:20:11;;;;;;;1.35;1.12;;;;;;;-1.39;75.87;100937.50;4437462;32;20168;-70
2021/12/21 01:25:28;;;;;;;1.95;1.27;;;;;;;-1.33;75.48;100936.91;4437301;32;20183;-70
2021/12/21 01:30:46;;;;;;;2.92;1.20;;;;;;;-1.36;75.72;100948.00;4437104;32;20120;-71
2021/12/21 01:35:52;;;;;;;3.28;1.52;;;;;;;-1.47;76.08;100955.28;4437358;32;20153;-71
2021/12/21 01:38:28;;;;;;;2.15;1.50;;;;;;;-1.49;76.19;100974.97;4437267;32;20536;-70
2021/12/21 01:43:37;;;;;;;1.92;1.50;;;;;;;-1.47;76.12;100980.22;4436973;32;20761;-71
2021/12/21 01:51:43;;;;;;;2.95;1.95;;;;;;;-1.48;76.26;100997.44;4443513;32;20466;-71
2021/12/21 01:54:10;;;;;;;3.05;1.80;;;;;;;-1.53;76.46;100998.03;4437162;32;20992;-71
2021/12/21 01:56:38;;;;;;;2.40;1.35;;;;;;;-1.61;76.82;101002.84;4436958;31;20498;-71
2021/12/21 01:59:05;;;;;;;1.12;1.10;;;;;;;-1.60;76.78;101004.59;4436973;32;20160;-71
2021/12/21 02:01:33;;;;;;;3.87;1.40;;;;;;;-1.61;76.34;101013.19;4436878;32;20169;-71
2021/12/21 02:04:00;;;;;;;3.20;1.30;;;;;;;-1.60;76.29;101014.06;4436816;31;20119;-70
2021/12/21 02:06:28;;;;;;;1.85;1.48;;;;;;;-1.66;76.37;101022.44;4436856;32;20567;-72
2021/12/21 02:08:59;;;;;;;2.85;1.00;;;;;;;-1.72;76.50;101016.97;4437034;32;20117;-71
2021/12/21 02:11:31;;;;;;;2.47;1.52;;;;;;;-1.73;76.62;101010.03;4436865;32;20153;-71
2021/12/21 02:13:59;;;;;;;2.55;1.77;;;;;;;-1.73;76.60;101016.09;4436654;32;20179;-71
2021/12/21 02:16:39;;;;;;;4.87;2.10;;;;;;;-1.74;76.51;101014.28;4436853;32;20513;-71
2021/12/21 02:19:18;;;;;;;2.95;1.70;;;;;;;-1.77;75.86;101018.41;4436805;32;20089;-71
2021/12/21 02:21:50;;;;;;;2.80;1.65;;;;;;;-1.70;75.05;101023.97;4436457;32;20089;-71
2021/12/21 02:24:22;;;;;;;2.22;1.30;;;;;;;-1.77;75.21;101014.13;4436162;32;20107;-70
2021/12/21 02:26:55;;;;;;;1.90;1.02;;;;;;;-1.83;75.06;101020.72;4437027;32;20139;-71
2021/12/21 02:29:28;;;;;;;2.30;1.02;;;;;;;-1.86;75.14;101018.88;4436675;32;20112;-70
2021/12/21 02:31:56;;;;;;;1.45;1.02;;;;;;;-1.79;74.53;101012.31;4436675;32;20180;-70
2021/12/21 02:34:24;;;;;;;1.62;1.15;;;;;;;-1.79;74.06;101012.31;4436698;32;20100;-71
2021/12/21 02:36:54;;;;;;;3.15;1.58;;;;;;;-1.82;73.31;101020.78;4436873;32;20098;-70
2021/12/21 02:39:23;;;;;;;3.37;1.70;;;;;;;-1.75;73.18;101011.66;4436528;32;20700;-70
2021/12/21 02:41:51;;;;;;;2.58;1.48;;;;;;;-1.77;72.87;101029.63;4436724;31;20116;-71
2021/12/21 02:44:18;;;;;;;1.83;0.93;;;;;;;-1.73;72.38;101028.12;4436605;32;20089;-70
2021/12/21 02:46:46;;;;;;;1.30;1.20;;;;;;;-1.71;72.16;101032.53;4436488;32;20435;-70
2021/12/21 02:49:15;;;;;;;2.15;1.00;;;;;;;-1.77;72.28;101039.97;4436565;31;20085;-70
2021/12/21 02:51:44;;;;;;;1.90;1.15;;;;;;;-1.74;71.82;101045.28;4436424;31;20623;-70
2021/12/21 02:54:13;;;;;;;2.42;1.50;;;;;;;-1.81;71.78;101048.38;4436528;32;20159;-70
2021/12/21 02:56:46;;;;;;;3.20;1.08;;;;;;;-1.81;71.70;101044.94;4436692;32;20583;-70
2021/12/21 02:59:16;;;;;;;1.70;1.20;;;;;;;-1.82;71.70;101051.78;4436714;32;20111;-70
2021/12/21 03:01:43;;;;;;;2.75;1.08;;;;;;;-1.87;71.46;101042.94;4436448;32;20097;-70
2021/12/21 03:04:13;;;;;;;1.10;1.00;;;;;;;-1.87;71.08;101049.78;4436292;32;20144;-70
2021/12/21 03:09:39;;;;;;;1.48;0.90;;;;;;;-1.83;70.07;101051.72;4436337;32;20081;-70
2021/12/21 03:14:38;;;;;;;1.90;0.70;;;;;;;-1.80;69.78;101046.69;4436316;32;20149;-70
2021/12/21 03:17:06;;;;;;;0.88;0.70;;;;;;;-1.86;69.78;101055.03;4436178;32;20101;-70
2021/12/21 03:19:33;;;;;;;2.85;1.10;;;;;;;-1.81;69.34;101063.00;4436127;31;20082;-71
2021/12/21 03:22:00;;;;;;;0.60;0.60;;;;;;;-1.83;69.35;101059.47;4436227;32;20157;-70
2021/12/21 03:24:28;;;;;;;2.10;0.60;;;;;;;-1.80;68.92;101047.59;4436176;32;20160;-70
2021/12/21 03:26:55;;;;;;;0.60;0.55;;;;;;;-1.81;69.09;101060.41;4436171;32;20128;-70
2021/12/21 03:29:26;;;;;;;4.75;1.20;;;;;;;-1.86;68.88;101055.03;4436149;32;20088;-70
2021/12/21 03:31:54;;;;;;;4.35;1.48;;;;;;;-1.86;68.89;101055.03;4436044;32;20449;-70
2021/12/21 03:34:21;;;;;;;2.00;0.98;;;;;;;-1.85;68.60;101053.34;4435679;31;20081;-70
2021/12/21 03:36:49;;;;;;;1.73;0.77;;;;;;;-1.98;68.74;101063.09;4436090;31;20097;-70
2021/12/21 03:39:18;;;;;;;1.33;0.90;;;;;;;-1.94;68.35;101053.78;4436127;31;20073;-70
2021/12/21 03:41:54;;;;;;;5.28;1.02;;;;;;;-1.94;68.47;101067.59;4436020;32;20082;-70
2021/12/21 03:44:23;;;;;;;1.67;0.93;;;;;;;-1.95;68.31;101070.06;4436078;32;20115;-70
2021/12/21 03:46:55;;;;;;;4.90;1.17;;;;;;;-1.97;68.19;101067.44;4435979;32;20097;-70
2021/12/21 03:49:53;;;;;;;1.85;0.82;;;;;;;-1.96;67.95;101082.09;4436075;32;20565;-70
2021/12/21 03:52:25;;;;;;;0.95;0.70;;;;;;;-2.00;68.06;101080.19;4436136;31;20597;-70
2021/12/21 03:54:56;;;;;;;2.50;0.85;;;;;;;-1.98;67.58;101082.84;4435829;32;20470;-70
2021/12/21 03:57:24;;;;;;;1.92;1.02;;;;;;;-2.01;67.72;101078.44;4435860;32;20093;-70
2021/12/21 03:59:53;;;;;;;3.22;1.10;;;;;;;-2.06;67.43;101087.63;4435762;32;20145;-70
2021/12/21 04:02:23;;;;;;;1.30;0.80;;;;;;;-2.01;67.20;101088.75;4435795;32;20081;-70
2021/12/21 04:04:52;;;;;;;1.10;0.80;;;;;;;-1.97;67.02;101094.97;4436076;32;20144;-70
2021/12/21 04:07:20;;;;;;;0.73;0.65;;;;;;;-2.01;67.10;101099.09;4435701;32;20092;-70
2021/12/21 04:09:48;;;;;;;3.67;0.75;;;;;;;-2.03;67.12;101092.06;4435762;32;20085;-70
2021/12/21 04:12:16;;;;;;;0.50;0.50;;;;;;;-2.07;67.33;101103.94;4435760;31;20161;-71
2021/12/21 04:14:44;;;;;;;1.65;0.60;;;;;;;-2.08;67.12;101107.34;4435641;32;20127;-70
2021/12/21 04:17:17;;;;;;;3.58;1.00;;;;;;;-2.13;67.36;101106.19;4435651;32;20101;-70
2021/12/21 04:19:45;;;;;;;5.15;1.20;;;;;;;-2.19;67.39;101106.78;4435553;32;20108;-70
2021/12/21 04:22:15;;;;;;;1.02;0.60;;;;;;;-2.14;67.34;101112.19;4435519;32;20089;-70
2021/12/21 04:24:46;;;;;;;0.82;0.62;;;;;;;-2.13;67.08;101103.62;4435566;32;20089;-70
2021/12/21 04:27:15;;;;;;;1.55;0.85;;;;;;;-2.17;67.31;101097.41;4435470;31;20126;-70
2021/12/21 04:29:43;;;;;;;2.58;1.15;;;;;;;-2.23;67.24;101099.66;4435273;31;20152;-70
2021/12/21 04:32:10;;;;;;;1.50;0.80;;;;;;;-2.27;67.46;101100.31;4435773;31;20085;-70
2021/12/21 04:34:38;;;;;;;2.47;1.45;;;;;;;-2.27;67.13;101107.19;4435603;31;20150;-70
2021/12/21 04:37:08;;;;;;;2.35;1.10;;;;;;;-2.30;67.35;101104.44;4435615;32;20157;-70
2021/12/21 04:39:45;;;;;;;1.10;1.00;;;;;;;-2.37;67.65;101105.81;4435277;32;20107;-70
2021/12/21 04:42:13;;;;;;;1.35;0.95;;;;;;;-2.35;67.31;101109.38;4435444;32;20384;-70
2021/12/21 04:44:40;;;;;;;2.87;1.00;;;;;;;-2.36;67.37;101102.47;4435137;32;20195;-70
2021/12/21 04:47:07;;;;;;;1.15;0.60;;;;;;;-2.39;67.33;101102.28;4437296;31;20093;-71
2021/12/21 04:49:34;;;;;;;2.37;1.00;;;;;;;-2.36;67.10;101110.19;4437779;32;20085;-70
2021/12/21 04:52:02;;;;;;;0.65;0.65;;;;;;;-2.36;67.09;101115.37;4437630;31;20180;-70
2021/12/21 04:54:29;;;;;;;1.60;0.93;;;;;;;-2.31;66.42;101120.75;4437492;32;20089;-70
2021/12/21 04:56:56;;;;;;;2.53;0.70;;;;;;;-2.37;66.83;101123.00;4437616;32;20445;-70
2021/12/21 04:59:24;;;;;;;3.42;0.65;;;;;;;-2.32;66.21;101126.72;4432200;32;20094;-70
2021/12/21 05:01:52;;;;;;;2.55;1.10;;;;;;;-2.34;66.14;101126.62;4422221;32;20090;-70
2021/12/21 05:04:19;;;;;;;0.73;0.73;;;;;;;-2.35;66.61;101131.72;4428344;32;20136;-71
2021/12/21 05:06:52;;;;;;;2.22;1.08;;;;;;;-2.36;66.47;101140.28;4430147;32;20098;-71
2021/12/21 05:09:24;;;;;;;1.45;0.70;;;;;;;-2.34;66.07;101131.78;4430902;31;20153;-71
2021/12/21 05:11:56;;;;;;;0.90;0.80;;;;;;;-2.32;66.10;101139.63;4427466;32;20782;-71
2021/12/21 05:14:24;;;;;;;3.95;1.92;;;;;;;-2.32;66.10;101139.63;4427310;32;20442;-71
2021/12/21 05:16:54;;;;;;;2.47;1.10;;;;;;;-2.39;66.06;101129.81;4430549;32;20105;-71
2021/12/21 05:19:21;;;;;;;1.90;0.98;;;;;;;-2.41;65.80;101133.16;4432332;32;20496;-71
2021/12/21 05:21:49;;;;;;;0.88;0.80;;;;;;;-2.34;65.64;101134.38;4430957;31;20105;-71
2021/12/21 05:24:16;;;;;;;5.87;1.15;;;;;;;-2.36;65.71;101142.88;4422777;32;20105;-71
2021/12/21 05:26:43;;;;;;;1.73;1.00;;;;;;;-2.34;65.51;101156.72;4408628;32;20105;-70
2021/12/21 05:29:11;;;;;;;2.90;1.50;;;;;;;-2.40;65.76;101154.72;4422522;31;20461;-70
2021/12/21 05:31:38;;;;;;;1.55;1.08;;;;;;;-2.43;65.85;101155.44;4423508;31;20124;-71
2021/12/21 05:34:05;;;;;;;3.25;1.30;;;;;;;-2.48;66.02;101156.88;4428278;32;20416;-70
2021/12/21 05:36:33;;;;;;;2.47;1.00;;;;;;;-2.51;66.17;101155.81;4425460;31;20136;-70
2021/12/21 05:39:04;;;;;;;0.88;0.75;;;;;;;-2.47;66.03;101152.63;4421995;32;20098;-71
2021/12/21 05:41:50;;;;;;;4.15;0.85;;;;;;;-2.53;65.91;101160.91;4422050;32;20078;-71
2021/12/21 05:44:22;;;;;;;2.10;1.10;;;;;;;-2.54;65.85;101161.75;4422548;32;20097;-71
2021/12/21 05:46:52;;;;;;;7.40;1.42;;;;;;;-2.55;65.95;101165.09;4422539;32;20435;-71
2021/12/21 05:49:20;;;;;;;2.20;0.80;;;;;;;-2.65;65.76;101175.72;4424152;32;20176;-71
2021/12/21 05:51:48;;;;;;;4.50;0.85;;;;;;;-2.58;65.12;101179.53;4422487;32;20116;-70
2021/12/21 05:54:16;;;;;;;1.58;1.02;;;;;;;-2.59;64.58;101182.94;4425142;32;20415;-71
2021/12/21 05:56:43;;;;;;;1.10;0.90;;;;;;;-2.52;63.82;101188.50;4426244;32;20117;-70
2021/12/21 05:59:10;;;;;;;1.80;1.67;;;;;;;-2.42;63.15;101190.75;4437037;32;20123;-70
2021/12/21 06:01:37;;;;;;;3.20;1.00;;;;;;;-2.38;62.57;101198.66;4437543;32;20512;-70
2021/12/21 06:04:05;;;;;;;1.37;1.05;;;;;;;-2.44;62.44;101192.38;4435384;31;20222;-70
2021/12/21 06:06:33;;;;;;;1.83;0.93;;;;;;;-2.39;62.55;101191.75;4421301;32;20440;-70
2021/12/21 06:09:05;;;;;;;3.25;1.10;;;;;;;-2.32;62.23;101192.13;4420995;31;20101;-70
2021/12/21 06:11:39;;;;;;;4.25;1.30;;;;;;;-2.37;62.63;101195.28;4419965;32;20165;-71
2021/12/21 06:14:20;;;;;;;0.88;0.88;;;;;;;-2.48;63.16;101200.75;4420425;32;20538;-70
2021/12/21 06:22:46;;;;;;;2.42;1.27;;;;;;;-2.34;63.93;101210.91;4420080;32;20531;-70
2021/12/21 06:25:36;;;;;;;6.40;1.60;;;;;;;-2.29;63.86;101220.69;4420585;32;20105;-70
2021/12/21 06:28:07;;;;;;;3.62;1.67;;;;;;;-2.27;64.16;101225.94;4420625;32;20077;-70
2021/12/21 06:30:37;;;;;;;4.30;2.10;;;;;;;-2.40;64.77;101232.16;4420967;32;20111;-70
2021/12/21 06:33:07;;;;;;;4.80;1.75;;;;;;;-2.32;64.74;101238.59;4421223;32;20086;-71
2021/12/21 06:35:35;;;;;;;4.12;2.25;;;;;;;-2.29;64.64;101230.13;4426570;32;20100;-70
2021/12/21 06:38:07;;;;;;;2.62;1.50;;;;;;;-2.28;64.87;101242.22;4420134;32;20098;-70
2021/12/21 06:40:35;;;;;;;4.05;1.90;;;;;;;-2.30;64.70;101236.97;4413409;32;20085;-70
2021/12/21 06:43:03;;;;;;;3.67;1.42;;;;;;;-2.36;65.16;101240.94;4426292;32;20123;-70
2021/12/21 06:45:45;;;;;;;4.75;1.45;;;;;;;-2.35;65.10;101234.97;4427480;32;20089;-70
2021/12/21 06:51:51;;;;;;;4.75;0.98;;;;;;;-2.27;64.45;101250.03;4424910;32;20158;-70
2021/12/21 06:53:57;;;;;;;3.78;1.37;;;;;;;-2.26;64.83;101256.09;4422798;32;20085;-70
2021/12/21 06:56:26;;;;;;;5.25;1.62;;;;;;;-2.35;65.21;101253.03;4429033;31;20101;-70
2021/12/21 06:58:55;;;;;;;5.95;2.00;;;;;;;-2.31;65.14;101252.38;4427081;31;20531;-70
2021/12/21 07:01:28;;;;;;;7.68;2.53;;;;;;;-2.21;64.75;101252.09;4429153;32;20457;-70
2021/12/21 07:03:59;;;;;;;10.00;1.92;;;;;;;-2.26;64.95;101254.44;4427462;32;20504;-70
2021/12/21 07:06:26;;;;;;;7.47;2.60;;;;;;;-2.32;65.10;101261.84;4428576;32;20097;-70
2021/12/21 07:19:38;;;;;;;5.40;2.83;;;;;;;-2.09;65.35;101270.78;4419381;32;20331;-69
2021/12/21 07:22:07;;;;;;;7.18;2.47;;;;;;;-2.16;65.94;101263.53;4420805;32;20098;-69
2021/12/21 07:24:34;;;;;;;5.22;2.33;;;;;;;-2.11;65.52;101269.84;4426248;31;20616;-69
2021/12/21 07:27:04;;;;;;;2.78;1.55;;;;;;;-2.06;65.68;101270.06;4428443;32;20097;-69
2021/12/21 07:29:31;;;;;;;2.70;1.77;;;;;;;-1.96;65.39;101264.59;4421087;32;20215;-69
2021/12/21 07:31:59;;;;;;;5.47;2.22;;;;;;;-2.00;65.66;101262.66;4421243;32;20752;-71
2021/12/21 07:34:26;;;;;;;4.57;2.15;;;;;;;-1.98;65.66;101264.53;4421388;32;20152;-71
2021/12/21 07:36:53;;;;;;;4.03;1.92;;;;;;;-1.94;65.79;101265.56;4421495;32;20808;-70
2021/12/21 07:39:21;;;;;;;3.55;1.98;;;;;;;-1.80;65.04;101266.25;4421331;32;20177;-70
2021/12/21 07:42:08;;;;;;;6.60;1.80;;;;;;;-1.79;65.25;101265.47;4423005;32;20163;-71
2021/12/21 07:44:35;;;;;;;3.05;1.62;;;;;;;-1.67;64.65;101271.25;4422895;32;20120;-71
2021/12/21 07:47:02;;;;;;;5.90;1.62;;;;;;;-1.57;64.67;101275.22;4423661;32;20132;-70
2021/12/21 07:49:30;;;;;;;2.62;1.58;;;;;;;-1.57;64.95;101275.22;4436818;31;20182;-71
2021/12/21 07:51:58;;;;;;;5.97;1.62;;;;;;;-1.42;63.80;101272.50;4436684;32;20107;-71
2021/12/21 07:54:25;;;;;;;4.40;1.37;;;;;;;-1.40;63.46;101271.78;4428382;31;20128;-71
2021/12/21 07:56:53;;;;;;;2.30;1.65;;;;;;;-1.29;63.62;101277.50;4420908;32;20128;-71
2021/12/21 07:59:21;;;;;;;6.53;1.80;;;;;;;-1.19;63.29;101278.84;4433958;32;20127;-70
2021/12/21 08:01:48;;;;;;;8.60;2.30;;;;;;;-1.12;63.35;101274.06;4429921;32;20085;-70
2021/12/21 08:04:16;;;;;;;6.40;2.15;;;;;;;-1.13;63.13;101277.47;4419621;32;20157;-71
2021/12/21 08:06:47;;;;;;;10.32;3.03;;;;;;;-1.03;63.10;101269.31;4419206;32;20090;-71
2021/12/21 08:09:14;;;;;;;8.20;2.65;;;;;;;-0.98;63.11;101273.03;4420547;32;20086;-70
2021/12/21 08:12:13;;;;;;;9.60;3.37;;;;;;;-0.82;63.09;101277.25;4420907;32;20128;-71
2021/12/21 08:14:37;;;;;;;7.87;4.43;;;;;;;-0.83;63.04;101283.22;4419371;32;20089;-70
2021/12/21 08:17:05;;;;;;;6.82;3.28;;;;;;;-0.71;63.08;101277.75;4420179;32;20101;-71
2021/12/21 08:19:32;;;;;;;6.15;2.78;;;;;;;-0.77;63.61;101287.84;4422345;32;20101;-71
2021/12/21 08:21:59;;;;;;;4.40;2.22;;;;;;;-0.76;63.96;101281.84;4429623;31;20124;-74
2021/12/21 08:24:26;;;;;;;3.78;2.75;;;;;;;-0.69;63.98;101283.91;4429574;32;20114;-72
2021/12/21 08:26:53;;;;;;;3.65;2.00;;;;;;;-0.57;63.72;101275.81;4428451;32;20109;-72
2021/12/21 08:29:21;;;;;;;10.77;2.45;;;;;;;-0.62;63.90;101279.91;4429652;31;20109;-74
2021/12/21 08:31:48;;;;;;;5.65;2.65;;;;;;;-0.52;64.06;101277.81;4429504;32;20715;-71
2021/12/21 08:34:15;;;;;;;3.97;2.17;;;;;;;-0.38;63.92;101282.78;4429281;31;20089;-70
2021/12/21 08:36:42;;;;;;;10.20;2.25;;;;;;;-0.26;63.68;101280.72;4430307;32;20213;-71
2021/12/21 08:39:10;;;;;;;7.97;1.95;;;;;;;-0.20;63.94;101281.03;4429912;32;20132;-70
2021/12/21 08:41:42;;;;;;;5.50;3.12;;;;;;;-0.23;64.27;101286.06;4428045;32;20146;-70
2021/12/21 08:44:11;;;;;;;9.82;2.80;;;;;;;-0.22;64.29;101293.00;4438032;32;20085;-70
2021/12/21 08:46:42;;;;;;;6.07;2.30;;;;;;;-0.05;64.43;101292.06;4437425;32;20180;-70
2021/12/21 08:49:09;;;;;;;3.15;2.03;;;;;;;0.01;64.30;101283.72;4436683;31;20089;-71
2021/12/21 08:51:36;;;;;;;8.02;2.42;;;;;;;0.00;64.39;101292.31;4438222;32;20136;-70
2021/12/21 08:54:05;;;;;;;4.40;2.20;;;;;;;-0.01;64.76;101290.50;4437651;32;20115;-70
2021/12/21 08:56:35;;;;;;;5.35;2.62;;;;;;;0.05;65.07;101289.91;4426884;31;20089;-69
2021/12/21 08:59:02;;;;;;;4.57;2.30;;;;;;;0.02;65.36;101284.59;4421784;31;20153;-69
2021/12/21 09:01:29;;;;;;;4.32;1.87;;;;;;;-0.09;65.44;101284.97;4426307;32;20081;-70
2021/12/21 09:03:57;;;;;;;4.55;1.90;;;;;;;-0.02;65.43;101292.22;4434126;31;20088;-70
2021/12/21 09:06:24;;;;;;;3.22;1.92;;;;;;;-0.03;65.70;101300.81;4437080;32;20112;-71
2021/12/21 09:08:52;;;;;;;2.78;1.98;;;;;;;0.12;64.80;101302.31;4435740;32;20132;-71
2021/12/21 09:11:19;;;;;;;9.05;2.70;;;;;;;0.23;65.27;101303.69;4437256;31;20373;-71
2021/12/21 09:13:46;;;;;;;10.85;3.10;;;;;;;0.27;65.48;101297.81;4436747;31;20100;-70
2021/12/21 09:16:14;;;;;;;6.57;2.75;;;;;;;0.35;64.82;101306.81;4437152;32;20129;-71
2021/12/21 09:18:41;;;;;;;6.25;2.53;;;;;;;0.29;65.32;101301.37;4431689;31;20150;-71
2021/12/21 09:21:08;;;;;;;4.53;2.03;;;;;;;0.18;65.76;101298.31;4428432;32;20085;-71
2021/12/21 09:23:36;;;;;;;6.78;3.25;;;;;;;0.34;64.90;101299.84;4431481;32;20093;-71
2021/12/21 09:26:03;;;;;;;6.75;2.85;;;;;;;0.39;64.51;101295.78;4426068;31;20102;-71
2021/12/21 09:28:30;;;;;;;3.92;1.87;;;;;;;0.42;64.75;101290.69;4422048;32;20126;-70
2021/12/21 09:30:59;;;;;;;19.58;3.00;;;;;;;0.54;64.41;101297.25;4422248;32;20762;-71
2021/12/21 09:33:26;;;;;;;4.95;2.30;;;;;;;0.77;63.74;101287.84;4422110;32;20094;-72
2021/12/21 09:35:54;;;;;;;3.55;1.80;;;;;;;0.81;63.42;101288.03;4422428;32;20120;-70
2021/12/21 09:38:21;;;;;;;3.40;2.45;;;;;;;0.83;62.69;101303.69;4426543;32;20131;-70
2021/12/21 09:40:54;;;;;;;3.45;1.55;;;;;;;0.93;62.52;101298.06;4430148;32;20579;-70
2021/12/21 09:43:22;;;;;;;4.43;1.85;;;;;;;1.09;62.20;101299.56;4428515;32;20978;-70
2021/12/21 09:45:50;;;;;;;2.75;2.03;;;;;;;1.31;61.54;101296.16;4429394;32;20162;-70
2021/12/21 09:48:17;;;;;;;3.55;1.75;;;;;;;1.39;61.23;101295.63;4428422;32;20105;-70
2021/12/21 09:50:46;;;;;;;4.10;2.12;;;;;;;1.47;60.58;101285.53;4424124;32;20090;-70
2021/12/21 09:53:13;;;;;;;3.45;1.52;;;;;;;1.59;60.43;101287.72;4422357;32;20154;-71
2021/12/21 09:55:47;;;;;;;2.05;1.87;;;;;;;1.80;59.73;101292.84;4422505;32;20110;-70
2021/12/21 09:58:14;;;;;;;4.32;1.90;;;;;;;1.76;59.85;101272.78;4421835;32;20105;-69
2021/12/21 10:00:41;;;;;;;5.00;2.00;;;;;;;1.90;59.73;101280.25;4420939;32;20098;-71
2021/12/21 10:03:10;;;;;;;4.07;1.73;;;;;;;2.03;59.07;101271.22;4420571;32;20086;-71
2021/12/21 10:05:41;;;;;;;6.45;2.25;;;;;;;2.04;58.52;101269.50;4420684;32;20151;-71
2021/12/21 10:08:13;;;;;;;1.75;1.42;;;;;;;2.12;58.98;101266.38;4429412;32;20093;-71
2021/12/21 10:10:43;;;;;;;3.72;1.80;;;;;;;2.13;57.99;101272.44;4436290;32;20081;-70
2021/12/21 10:13:17;;;;;;;1.80;0.93;;;;;;;2.15;58.07;101270.78;4436104;32;20089;-71
2021/12/21 10:15:48;;;;;;;1.83;1.15;;;;;;;2.08;57.85;101269.66;4436941;32;20089;-71
2021/12/21 10:18:32;;;;;;;1.83;1.67;;;;;;;2.09;58.21;101270.56;4431803;32;20748;-72
2021/12/21 10:21:03;;;;;;;2.78;1.48;;;;;;;2.53;57.56;101273.87;4428792;32;20479;-72
2021/12/21 10:23:33;;;;;;;4.47;1.83;;;;;;;3.19;55.50;101260.47;4437134;32;20145;-72
2021/12/21 10:26:13;;;;;;;4.00;1.62;;;;;;;3.77;54.62;101257.03;4437413;32;20090;-72
2021/12/21 10:28:52;;;;;;;5.55;2.28;;;;;;;4.45;52.22;101262.44;4437271;32;20165;-72
2021/12/21 10:31:28;;;;;;;6.65;2.17;;;;;;;4.63;51.65;101262.94;4432741;32;20146;-72
2021/12/21 10:33:58;;;;;;;5.85;2.75;;;;;;;4.88;50.85;101256.63;4428312;32;20116;-71
2021/12/21 10:36:29;;;;;;;4.55;2.37;;;;;;;5.68;50.01;101261.97;4434713;32;20209;-71
2021/12/21 10:38:59;;;;;;;3.90;1.95;;;;;;;5.79;48.55;101258.72;4437194;32;20093;-71
2021/12/21 10:41:44;;;;;;;6.43;2.17;;;;;;;5.69;48.56;101253.31;4436941;32;20192;-69
2021/12/21 10:44:18;;;;;;;2.60;2.05;;;;;;;6.11;47.73;101252.50;4433576;32;20081;-72
2021/12/21 10:46:50;;;;;;;4.70;2.40;;;;;;;6.17;48.27;101252.59;4436497;32;20169;-73
2021/12/21 10:49:31;;;;;;;4.55;2.53;;;;;;;6.01;48.27;101247.91;4437182;32;20113;-74
2021/12/21 10:52:07;;;;;;;2.60;1.87;;;;;;;6.40;46.54;101242.59;4423100;32;20451;-73
2021/12/21 10:54:53;;;;;;;8.85;2.80;;;;;;;6.78;45.54;101238.88;4437389;32;20106;-72
2021/12/21 10:57:24;;;;;;;3.90;2.30;;;;;;;7.16;44.27;101229.03;4437136;32;20081;-70
2021/12/21 10:59:53;;;;;;;4.95;2.35;;;;;;;7.01;44.69;101229.66;4437108;32;20145;-73
2021/12/21 11:02:27;;;;;;;4.53;3.50;;;;;;;7.29;43.64;101224.88;4430918;32;20161;-73
2021/12/21 11:05:00;;;;;;;8.60;2.70;;;;;;;6.58;45.64;101225.44;4428250;32;20088;-71
2021/12/21 11:07:39;;;;;;;4.90;2.92;;;;;;;6.82;45.86;101214.50;4434116;32;20094;-71
2021/12/21 11:10:25;;;;;;;4.40;3.05;;;;;;;7.22;45.38;101216.03;4427179;32;20097;-72
2021/12/21 11:13:08;;;;;;;6.28;3.10;;;;;;;7.05;45.85;101214.88;4429412;32;20084;-73
2021/12/21 11:15:39;;;;;;;7.75;3.35;;;;;;;7.09;46.54;101212.31;4428111;32;20097;-73
2021/12/21 11:18:09;;;;;;;8.07;2.83;;;;;;;7.65;44.11;101211.38;4428717;32;20170;-72
2021/12/21 11:20:48;;;;;;;4.50;2.87;;;;;;;7.82;43.43;101206.34;4431216;32;20119;-70
2021/12/21 11:23:18;;;;;;;4.12;2.40;;;;;;;7.91;43.89;101206.44;4431869;32;20149;-71
2021/12/21 11:25:48;;;;;;;4.60;1.55;;;;;;;7.30;44.42;101203.03;4420480;32;20109;-70
2021/12/21 11:28:26;;;;;;;3.30;1.73;;;;;;;6.08;45.85;101207.03;4424218;32;20143;-70
2021/12/21 11:31:00;;;;;;;2.78;2.00;;;;;;;6.50;45.11;101203.47;4427523;32;21023;-72
2021/12/21 11:33:34;;;;;;;3.45;1.70;;;;;;;6.57;45.59;101207.94;4427211;32;20154;-73
2021/12/21 11:38:52;;;;;;;6.57;1.92;;;;;;;5.49;46.17;101195.34;4424964;32;20181;-72
2021/12/21 11:41:20;;;;;;;4.80;2.42;;;;;;;5.98;46.36;101200.75;4423989;32;20097;-72
2021/12/21 11:43:57;;;;;;;3.17;1.95;;;;;;;6.94;45.23;101191.12;4428999;32;20085;-72
2021/12/21 11:46:33;;;;;;;3.65;2.50;;;;;;;7.90;42.28;101199.44;4425493;32;20100;-73
2021/12/21 11:49:13;;;;;;;5.70;2.10;;;;;;;7.92;41.83;101197.75;4426540;32;20090;-74
2021/12/21 11:51:42;;;;;;;5.57;1.95;;;;;;;7.92;43.06;101187.25;4422994;32;20166;-76
2021/12/21 11:54:19;;;;;;;6.93;2.00;;;;;;;8.74;40.40;101189.84;4424937;32;20109;-73
2021/12/21 11:56:51;;;;;;;5.25;2.33;;;;;;;9.32;40.53;101182.37;4424470;32;20161;-74
2021/12/21 11:59:22;;;;;;;6.07;2.00;;;;;;;10.60;37.29;101185.47;4419998;32;20098;-73
2021/12/21 12:01:50;;;;;;;7.07;2.25;;;;;;;10.07;36.44;101184.50;4424628;32;20119;-73
2021/12/21 12:04:20;;;;;;;2.70;2.00;;;;;;;9.92;38.55;101184.41;4428516;32;20089;-73
2021/12/21 12:06:51;;;;;;;4.10;2.40;;;;;;;10.09;36.10;101179.22;4428205;32;20093;-73
2021/12/21 12:09:22;;;;;;;6.62;2.67;;;;;;;10.12;36.72;101181.88;4426444;32;20121;-74
2021/12/21 12:11:51;;;;;;;10.52;4.45;;;;;;;10.07;37.10;101181.84;4426286;32;20089;-74
2021/12/21 12:14:21;;;;;;;10.48;5.75;;;;;;;9.34;37.61;101175.38;4417678;32;20093;-74
2021/12/21 12:16:55;;;;;;;6.78;4.10;;;;;;;10.09;37.61;101180.09;4427381;32;20147;-73
2021/12/21 12:19:31;;;;;;;5.12;2.85;;;;;;;10.25;36.67;101178.41;4429899;32;20157;-74
2021/12/21 12:22:04;;;;;;;3.33;2.95;;;;;;;10.46;35.55;101170.56;4426850;32;20440;-72
2021/12/21 12:24:45;;;;;;;3.92;2.53;;;;;;;9.68;35.77;101170.31;4426183;32;20519;-73
2021/12/21 12:27:17;;;;;;;9.32;2.42;;;;;;;10.54;35.87;101167.91;4430713;32;20089;-73
2021/12/21 12:29:59;;;;;;;7.95;2.55;;;;;;;10.24;36.64;101173.97;4414712;32;20427;-73
2021/12/21 12:32:41;;;;;;;2.40;2.17;;;;;;;11.38;35.09;101170.50;4418565;31;20237;-74
2021/12/21 12:35:15;;;;;;;2.45;1.75;;;;;;;11.55;34.57;101174.81;4425049;32;20090;-74